createdAt,value
2022-11-29T00:05:33.353Z,967.49
2022-11-29T00:15:33.513Z,967.47
2022-11-29T00:25:33.753Z,967.49
2022-11-29T00:35:33.931Z,967.48
2022-11-29T00:45:34.083Z,967.51
2022-11-29T00:55:34.131Z,967.51
2022-11-29T01:05:34.373Z,967.59
2022-11-29T01:15:34.529Z,967.56
2022-11-29T01:25:34.784Z,967.57
2022-11-29T01:35:34.990Z,967.62
2022-11-29T01:45:35.241Z,967.62
2022-11-29T01:55:35.583Z,967.58
2022-11-29T02:05:35.528Z,967.63
2022-11-29T02:15:35.800Z,967.59
2022-11-29T02:25:36.026Z,967.58
2022-11-29T02:35:36.222Z,967.60
2022-11-29T02:45:36.233Z,967.60
2022-11-29T02:55:36.416Z,967.61
2022-11-29T03:05:36.644Z,967.70
2022-11-29T03:15:36.958Z,967.72
2022-11-29T03:25:36.959Z,967.79
2022-11-29T03:35:37.133Z,967.77
2022-11-29T03:45:37.262Z,967.80
2022-11-29T03:55:37.422Z,967.84
2022-11-29T04:05:37.669Z,967.84
2022-11-29T04:15:37.894Z,967.86
2022-11-29T04:25:38.009Z,967.92
2022-11-29T04:35:38.179Z,967.99
2022-11-29T04:45:38.291Z,968.10
2022-11-29T04:55:38.449Z,968.14
2022-11-29T05:05:38.696Z,968.17
2022-11-29T05:15:38.933Z,968.29
2022-11-29T05:25:39.055Z,968.32
2022-11-29T05:35:39.307Z,968.30
2022-11-29T05:45:39.416Z,968.44
2022-11-29T05:55:39.589Z,968.50
2022-11-29T06:05:39.813Z,968.46
2022-11-29T06:15:40.280Z,968.58
2022-11-29T06:25:40.270Z,968.78
2022-11-29T06:35:40.350Z,968.82
2022-11-29T06:45:40.463Z,968.95
2022-11-29T06:55:40.643Z,969.00
2022-11-29T07:05:41.074Z,969.02
2022-11-29T07:15:41.026Z,969.14
2022-11-29T07:25:41.150Z,969.26
2022-11-29T07:35:41.352Z,969.23
2022-11-29T07:45:41.573Z,969.28
2022-11-29T07:55:41.639Z,969.32
2022-11-29T08:05:41.874Z,969.47
2022-11-29T08:15:42.033Z,969.47
2022-11-29T08:25:42.286Z,969.58
2022-11-29T08:35:42.438Z,969.55
2022-11-29T08:45:42.739Z,969.64
2022-11-29T08:55:43.141Z,969.64
2022-11-29T09:05:43.010Z,969.67
2022-11-29T09:15:43.164Z,969.78
2022-11-29T09:25:43.405Z,969.82
2022-11-29T09:35:43.591Z,969.85
2022-11-29T09:45:43.735Z,970.01
2022-11-29T09:55:43.944Z,969.96
2022-11-29T10:05:44.055Z,969.97
2022-11-29T10:15:44.206Z,970.19
2022-11-29T10:25:44.485Z,970.00
2022-11-29T10:35:44.758Z,969.94
2022-11-29T10:45:44.786Z,970.02
2022-11-29T10:55:44.845Z,970.07
2022-11-29T11:05:45.334Z,969.91
2022-11-29T11:15:45.211Z,969.98
2022-11-29T11:25:45.533Z,969.93
2022-11-29T11:35:45.604Z,969.92
2022-11-29T11:45:46.139Z,970.06
2022-11-29T11:55:46.003Z,970.08
2022-11-29T12:05:46.473Z,970.15
2022-11-29T12:15:46.644Z,970.13
2022-11-29T12:25:46.616Z,970.09
2022-11-29T12:35:46.865Z,970.25
2022-11-29T12:45:47.161Z,970.26
2022-11-29T12:55:47.002Z,970.30
2022-11-29T13:05:47.412Z,970.23
2022-11-29T13:15:47.337Z,970.44
2022-11-29T13:25:47.649Z,970.43
2022-11-29T13:35:47.727Z,970.48
2022-11-29T13:45:47.930Z,970.47
2022-11-29T13:55:47.994Z,970.56
2022-11-29T14:05:48.117Z,970.61
2022-11-29T14:15:48.289Z,970.61
2022-11-29T14:25:52.422Z,970.65
2022-11-29T14:35:48.575Z,970.69
2022-11-29T14:45:48.708Z,970.78
2022-11-29T14:55:48.877Z,970.83
2022-11-29T15:05:49.187Z,970.92
2022-11-29T15:15:49.564Z,970.94
2022-11-29T15:25:49.474Z,971.00
2022-11-29T15:35:49.706Z,971.03
2022-11-29T15:45:49.969Z,971.17
2022-11-29T15:55:50.266Z,971.39
2022-11-29T16:05:50.168Z,971.34
2022-11-29T16:15:50.355Z,971.47
2022-11-29T16:25:50.588Z,971.58
2022-11-29T16:35:50.771Z,971.65
2022-11-29T16:45:50.948Z,971.61
2022-11-29T16:55:51.003Z,971.72
2022-11-29T17:05:51.313Z,971.65
2022-11-29T17:15:51.571Z,971.70
2022-11-29T17:25:51.862Z,971.72
2022-11-29T17:35:51.699Z,971.75
2022-11-29T17:45:51.982Z,971.86
2022-11-29T17:55:52.367Z,971.88
2022-11-29T18:05:52.259Z,971.97
2022-11-29T18:15:52.623Z,972.04
2022-11-29T18:25:52.616Z,972.13
2022-11-29T18:35:52.768Z,972.11
2022-11-29T18:45:53.147Z,972.22
2022-11-29T18:55:53.106Z,972.18
2022-11-29T19:05:53.455Z,972.19
2022-11-29T19:15:54.676Z,972.23
2022-11-29T19:25:53.693Z,972.36
2022-11-29T19:35:53.844Z,972.51
2022-11-29T19:45:54.133Z,972.47
2022-11-29T19:55:54.192Z,972.55
2022-11-29T20:05:54.445Z,972.46
2022-11-29T20:15:54.808Z,972.39
2022-11-29T20:25:54.799Z,972.50
2022-11-29T20:35:54.964Z,972.67
2022-11-29T20:45:55.280Z,972.80
2022-11-29T20:55:55.357Z,972.83
2022-11-29T21:05:55.594Z,972.73
2022-11-29T21:15:55.840Z,972.83
2022-11-29T21:25:55.953Z,972.75
2022-11-29T21:35:56.130Z,972.67
2022-11-29T21:45:56.340Z,972.71
2022-11-29T21:55:56.584Z,972.70
2022-11-29T22:05:56.883Z,972.82
2022-11-29T22:15:56.947Z,972.98
2022-11-29T22:25:57.038Z,972.90
2022-11-29T22:35:57.300Z,972.98
2022-11-29T22:45:57.465Z,972.87
2022-11-29T22:55:57.532Z,972.89
2022-11-29T23:05:57.758Z,972.90
2022-11-29T23:15:57.940Z,972.97
2022-11-29T23:25:58.165Z,972.88
2022-11-29T23:35:58.347Z,972.84
2022-11-29T23:45:58.638Z,972.90
2022-11-29T23:55:58.724Z,972.81
